Time,TemperatureF,DewpointF,PressureIn,WindDirection,WindDirectionDegrees,WindSpeedMPH,WindSpeedGustMPH,Humidity,HourlyPrecipIn,Conditions,Clouds,dailyrainin,SolarRadiationWatts/m^2,SoftwareType,DateUTC
2014-08-20 00:01:00,61.0,54.0,-100.00,WNW,287,1.0,6.0,77,0.00,,,0.00,0.000000,,2014-08-20 07:01:00,
2014-08-20 00:42:00,61.0,54.0,-100.00,WNW,287,1.0,6.0,77,0.00,,,0.00,0.000000,,2014-08-20 07:42:00,
2014-08-20 00:53:00,61.0,54.0,-100.00,WNW,287,1.0,6.0,77,0.00,,,0.00,0.000000,,2014-08-20 07:53:00,
2014-08-20 01:01:00,61.0,53.0,-100.00,East,99,2.0,7.0,76,0.00,,,0.00,0.000000,,2014-08-20 08:01:00,
2014-08-20 01:22:00,61.0,53.0,-100.00,East,99,2.0,7.0,76,0.00,,,0.00,0.000000,,2014-08-20 08:22:00,
2014-08-20 02:01:00,59.0,54.0,-100.00,West,271,1.0,5.0,83,0.00,,,0.00,0.000000,,2014-08-20 09:01:00,
2014-08-20 02:32:00,59.0,54.0,-100.00,West,271,1.0,5.0,83,0.00,,,0.00,0.000000,,2014-08-20 09:32:00,
2014-08-20 02:43:00,59.0,54.0,-100.00,West,271,1.0,5.0,83,0.00,,,0.00,0.000000,,2014-08-20 09:43:00,
2014-08-20 02:52:00,59.0,54.0,-100.00,West,271,1.0,5.0,83,0.00,,,0.00,0.000000,,2014-08-20 09:52:00,
2014-08-20 03:22:00,61.0,53.0,-100.00,NW,321,4.0,7.0,75,0.00,,,0.00,0.000000,,2014-08-20 10:22:00,
2014-08-20 03:42:00,61.0,53.0,-100.00,NW,321,4.0,7.0,75,0.00,,,0.00,0.000000,,2014-08-20 10:42:00,
2014-08-20 04:22:00,60.0,52.0,-100.00,NNW,340,2.0,6.0,76,0.00,,,0.00,0.000000,,2014-08-20 11:22:00,
2014-08-20 04:52:00,60.0,52.0,-100.00,NNW,340,2.0,6.0,76,0.00,,,0.00,0.000000,,2014-08-20 11:52:00,
2014-08-20 05:01:00,61.0,53.0,-100.00,North,2,3.0,7.0,74,0.00,,,0.00,0.000000,,2014-08-20 12:01:00,
2014-08-20 05:42:00,61.0,53.0,-100.00,North,2,3.0,7.0,74,0.00,,,0.00,0.000000,,2014-08-20 12:42:00,
2014-08-20 05:53:00,61.0,53.0,-100.00,North,2,3.0,7.0,74,0.00,,,0.00,0.000000,,2014-08-20 12:53:00,
2014-08-20 06:22:00,62.0,53.0,-100.00,North,5,5.0,10.0,73,0.00,,,0.00,0.000000,,2014-08-20 13:22:00,
2014-08-20 06:32:00,62.0,53.0,-100.00,North,5,5.0,10.0,73,0.00,,,0.00,0.000000,,2014-08-20 13:32:00,
2014-08-20 06:43:00,62.0,53.0,-100.00,North,5,5.0,10.0,73,0.00,,,0.00,0.000000,,2014-08-20 13:43:00,
2014-08-20 06:52:00,62.0,53.0,-100.00,North,5,5.0,10.0,73,0.00,,,0.00,0.000000,,2014-08-20 13:52:00,
2014-08-20 07:01:00,58.0,54.0,-100.00,NNW,338,5.0,9.0,85,0.00,,,0.00,6.000000,,2014-08-20 14:01:00,
2014-08-20 07:53:00,58.0,54.0,-100.00,NNW,338,5.0,9.0,85,0.00,,,0.00,6.000000,,2014-08-20 14:53:00,
2014-08-20 08:01:00,64.0,54.0,-100.00,NNE,21,3.0,9.0,70,0.00,,,0.00,129.000000,,2014-08-20 15:01:00,
2014-08-20 08:22:00,64.0,54.0,-100.00,NNE,21,3.0,9.0,70,0.00,,,0.00,129.000000,,2014-08-20 15:22:00,
2014-08-20 08:34:00,64.0,54.0,-100.00,NNE,21,3.0,9.0,70,0.00,,,0.00,129.000000,,2014-08-20 15:34:00,
2014-08-20 09:01:00,65.0,55.0,-100.00,North,353,3.0,8.0,69,0.00,,,0.00,316.000000,,2014-08-20 16:01:00,
2014-08-20 09:24:00,65.0,55.0,-100.00,North,353,3.0,8.0,69,0.00,,,0.00,316.000000,,2014-08-20 16:24:00,
2014-08-20 09:53:00,65.0,55.0,-100.00,North,353,3.0,8.0,69,0.00,,,0.00,316.000000,,2014-08-20 16:53:00,